AIC116 KJFK-VABB
Flight info
| Callsign | AIC116 |
|---|---|
| Flight time | N/A |
| Altitude | 29000 |
| Route | MERIT DCT HFD DCT WITCH DCT ALLEX DCT JOOPY/M085F310 DCT 49N050W 50N040W 50N030W 49N020W 48N015W DCT ETIKI DCT REGHI/N0493F310 DCT ADSET/N0485F330 DCT LEMKA DCT BEBIX DCT YAQEL DCT RETNO DCT NIRDO DCT DOKAR DCT SUNEV DCT KUTID DCT DINOB/N0483F350 DCT KFN DCT IRA DCT PAXIS L607 NABSI P557 OBRAN L321 REXUM DCT PMA Y214 RAPMA DCT KATIT/N0494F370 DCT MIDGU DCT TULBU DCT AMBOS DCT PARAR DCT SUGID KETOR2A |
| Aircraft | B77W/H-SDE1E2E3FGHIJ2J3J4J5M1RWXY/LB1D1 |
Departure
| Time | 2026-05-06 11:25 |
|---|---|
| Airport | John F. Kennedy International Airport (KJFK) |
Arrival
| Time | N/A |
|---|---|
| Airport | Chhatrapati Shivaji Maharaj International Airport (VABB) |
| Time | Latitude | Longitude | Altitude | Speed | Heading |
|---|---|---|---|---|---|
| 2026-05-06 10:51 | 40.64070 | -73.78113 | 25 ft | 0 kts | 239° |
| 2026-05-06 11:11 | 40.64077 | -73.78096 | 29 ft | 4 kts | 239° |
| 2026-05-06 11:11 | 40.64091 | -73.78065 | 31 ft | 4 kts | 239° |
| 2026-05-06 11:11 | 40.64101 | -73.78042 | 31 ft | 4 kts | 222° |
| 2026-05-06 11:12 | 40.64114 | -73.78031 | 31 ft | 4 kts | 177° |
| 2026-05-06 11:12 | 40.64136 | -73.78039 | 31 ft | 4 kts | 150° |
| 2026-05-06 11:12 | 40.64158 | -73.78057 | 31 ft | 3 kts | 150° |
| 2026-05-06 11:12 | 40.64162 | -73.78060 | 31 ft | 0 kts | 151° |
| 2026-05-06 11:15 | 40.64148 | -73.78049 | 31 ft | 6 kts | 151° |
| 2026-05-06 11:15 | 40.64106 | -73.78019 | 31 ft | 7 kts | 151° |
| 2026-05-06 11:15 | 40.64063 | -73.77988 | 29 ft | 7 kts | 151° |
| 2026-05-06 11:16 | 40.64020 | -73.77959 | 29 ft | 7 kts | 157° |
| 2026-05-06 11:16 | 40.63973 | -73.77946 | 28 ft | 7 kts | 174° |
| 2026-05-06 11:16 | 40.63924 | -73.77938 | 28 ft | 8 kts | 173° |
| 2026-05-06 11:16 | 40.63862 | -73.77928 | 29 ft | 10 kts | 173° |
| 2026-05-06 11:17 | 40.63783 | -73.77916 | 28 ft | 13 kts | 174° |
| 2026-05-06 11:17 | 40.63686 | -73.77902 | 28 ft | 15 kts | 173° |
| 2026-05-06 11:17 | 40.63578 | -73.77866 | 31 ft | 17 kts | 143° |
| 2026-05-06 11:17 | 40.63556 | -73.77790 | 29 ft | 7 kts | 60° |
| 2026-05-06 11:18 | 40.63607 | -73.77746 | 29 ft | 11 kts | 30° |
| 2026-05-06 11:18 | 40.63680 | -73.77690 | 30 ft | 14 kts | 31° |
| 2026-05-06 11:18 | 40.63770 | -73.77620 | 30 ft | 17 kts | 31° |
| 2026-05-06 11:18 | 40.63878 | -73.77536 | 28 ft | 19 kts | 31° |
| 2026-05-06 11:19 | 40.64002 | -73.77439 | 30 ft | 22 kts | 31° |
| 2026-05-06 11:19 | 40.64141 | -73.77331 | 31 ft | 24 kts | 31° |
| 2026-05-06 11:19 | 40.64293 | -73.77212 | 29 ft | 27 kts | 31° |
| 2026-05-06 11:19 | 40.64423 | -73.77111 | 28 ft | 18 kts | 29° |
| 2026-05-06 11:20 | 40.64542 | -73.77090 | 27 ft | 10 kts | 360° |
| 2026-05-06 11:20 | 40.64573 | -73.77030 | 29 ft | 9 kts | 89° |
| 2026-05-06 11:20 | 40.64579 | -73.76947 | 28 ft | 9 kts | 66° |
| 2026-05-06 11:20 | 40.64628 | -73.76894 | 30 ft | 9 kts | 31° |
| 2026-05-06 11:21 | 40.64682 | -73.76851 | 29 ft | 9 kts | 31° |
| 2026-05-06 11:21 | 40.64737 | -73.76809 | 28 ft | 9 kts | 30° |
| 2026-05-06 11:21 | 40.64793 | -73.76766 | 28 ft | 9 kts | 31° |
| 2026-05-06 11:21 | 40.64861 | -73.76713 | 30 ft | 15 kts | 31° |
| 2026-05-06 11:22 | 40.64963 | -73.76632 | 31 ft | 18 kts | 31° |
| 2026-05-06 11:22 | 40.65068 | -73.76549 | 28 ft | 18 kts | 31° |
| 2026-05-06 11:22 | 40.65101 | -73.76486 | 29 ft | 7 kts | 94° |
| 2026-05-06 11:22 | 40.65080 | -73.76429 | 27 ft | 7 kts | 120° |
| 2026-05-06 11:23 | 40.65056 | -73.76374 | 27 ft | 7 kts | 120° |
| 2026-05-06 11:23 | 40.65015 | -73.76361 | 27 ft | 7 kts | 205° |
| 2026-05-06 11:23 | 40.65008 | -73.76366 | 27 ft | 0 kts | 211° |
| 2026-05-06 11:23 | 40.65000 | -73.76372 | 27 ft | 7 kts | 211° |
| 2026-05-06 11:24 | 40.64801 | -73.76527 | 32 ft | 70 kts | 211° |
| 2026-05-06 11:24 | 40.64153 | -73.77035 | 30 ft | 145 kts | 210° |
| 2026-05-06 11:24 | 40.63089 | -73.77854 | 35 ft | 205 kts | 210° |
| 2026-05-06 11:24 | 40.61813 | -73.78863 | 605 ft | 220 kts | 211° |
| 2026-05-06 11:25 | 40.60508 | -73.79880 | 1837 ft | 205 kts | 208° |
| 2026-05-06 11:25 | 40.59228 | -73.80148 | 3374 ft | 185 kts | 184° |
| 2026-05-06 11:25 | 40.57953 | -73.80286 | 3797 ft | 186 kts | 211° |
| 2026-05-06 11:25 | 40.56873 | -73.81235 | 4174 ft | 189 kts | 218° |
| 2026-05-06 11:26 | 40.55835 | -73.82343 | 4652 ft | 195 kts | 232° |
| 2026-05-06 11:26 | 40.55350 | -73.84023 | 5102 ft | 207 kts | 264° |
| 2026-05-06 11:26 | 40.55686 | -73.85957 | 5214 ft | 237 kts | 293° |
| 2026-05-06 11:26 | 40.56861 | -73.87624 | 5433 ft | 263 kts | 319° |
| 2026-05-06 11:27 | 40.58639 | -73.88594 | 5558 ft | 294 kts | 347° |
| 2026-05-06 11:27 | 40.60739 | -73.88433 | 5930 ft | 312 kts | 14° |
| 2026-05-06 11:27 | 40.62731 | -73.87222 | 6433 ft | 319 kts | 31° |
| 2026-05-06 11:27 | 40.64553 | -73.85590 | 6968 ft | 322 kts | 35° |
| 2026-05-06 11:28 | 40.66373 | -73.83819 | 7492 ft | 327 kts | 36° |
| 2026-05-06 11:28 | 40.68208 | -73.81998 | 8021 ft | 331 kts | 36° |
| 2026-05-06 11:28 | 40.70059 | -73.80161 | 8560 ft | 335 kts | 36° |
| 2026-05-06 11:28 | 40.71935 | -73.78312 | 9050 ft | 337 kts | 36° |
| 2026-05-06 11:29 | 40.73837 | -73.76451 | 9414 ft | 342 kts | 36° |
| 2026-05-06 11:29 | 40.75738 | -73.74600 | 9797 ft | 345 kts | 35° |
| 2026-05-06 11:29 | 40.77685 | -73.72711 | 10150 ft | 350 kts | 35° |
| 2026-05-06 11:29 | 40.79693 | -73.70769 | 10278 ft | 364 kts | 35° |
| 2026-05-06 11:30 | 40.81775 | -73.68759 | 10409 ft | 379 kts | 35° |
| 2026-05-06 11:30 | 40.83954 | -73.66654 | 10537 ft | 394 kts | 35° |
| 2026-05-06 11:30 | 40.86219 | -73.64465 | 10694 ft | 409 kts | 35° |
| 2026-05-06 11:30 | 40.88521 | -73.62238 | 10999 ft | 419 kts | 35° |
| 2026-05-06 11:31 | 40.90899 | -73.59937 | 11444 ft | 425 kts | 35° |
| 2026-05-06 11:31 | 40.93293 | -73.57617 | 12061 ft | 428 kts | 35° |
| 2026-05-06 11:31 | 40.95703 | -73.55278 | 12721 ft | 430 kts | 35° |
| 2026-05-06 11:31 | 40.98116 | -73.52935 | 13352 ft | 433 kts | 35° |
| 2026-05-06 11:32 | 41.00565 | -73.50555 | 13938 ft | 437 kts | 35° |
| 2026-05-06 11:32 | 41.03022 | -73.48166 | 14480 ft | 440 kts | 35° |
| 2026-05-06 11:32 | 41.05461 | -73.45792 | 15058 ft | 442 kts | 34° |
| 2026-05-06 11:32 | 41.07952 | -73.43365 | 15680 ft | 443 kts | 34° |
| 2026-05-06 11:33 | 41.10438 | -73.40941 | 16263 ft | 446 kts | 34° |
| 2026-05-06 11:33 | 41.12953 | -73.38485 | 16826 ft | 449 kts | 34° |
| 2026-05-06 11:33 | 41.15474 | -73.36022 | 17390 ft | 451 kts | 34° |
| 2026-05-06 11:33 | 41.18010 | -73.33541 | 17933 ft | 454 kts | 34° |
| 2026-05-06 11:34 | 41.20568 | -73.31037 | 18463 ft | 457 kts | 34° |
| 2026-05-06 11:34 | 41.23135 | -73.28521 | 18935 ft | 460 kts | 33° |
| 2026-05-06 11:34 | 41.25720 | -73.25984 | 19406 ft | 462 kts | 33° |
| 2026-05-06 11:34 | 41.28310 | -73.23440 | 19866 ft | 465 kts | 33° |
| 2026-05-06 11:35 | 41.30932 | -73.20863 | 20313 ft | 468 kts | 33° |
| 2026-05-06 11:35 | 41.33564 | -73.18273 | 20766 ft | 471 kts | 33° |
| 2026-05-06 11:35 | 41.36098 | -73.15547 | 21182 ft | 477 kts | 40° |
| 2026-05-06 11:35 | 41.38409 | -73.12339 | 21601 ft | 482 kts | 47° |
| 2026-05-06 11:36 | 41.40474 | -73.08774 | 22009 ft | 487 kts | 55° |
| 2026-05-06 11:36 | 41.42245 | -73.04903 | 22432 ft | 491 kts | 58° |
| 2026-05-06 11:36 | 41.43955 | -73.00946 | 22831 ft | 494 kts | 59° |
| 2026-05-06 11:36 | 41.45657 | -72.96973 | 23180 ft | 495 kts | 59° |
| 2026-05-06 11:37 | 41.47361 | -72.93015 | 23460 ft | 497 kts | 58° |
| 2026-05-06 11:37 | 41.49101 | -72.89011 | 23684 ft | 500 kts | 58° |
| 2026-05-06 11:37 | 41.50864 | -72.84982 | 23929 ft | 502 kts | 58° |
| 2026-05-06 11:37 | 41.52611 | -72.81001 | 24197 ft | 503 kts | 58° |
| 2026-05-06 11:38 | 41.54382 | -72.76966 | 24473 ft | 504 kts | 58° |
| 2026-05-06 11:38 | 41.56152 | -72.72929 | 24738 ft | 505 kts | 58° |
| 2026-05-06 11:38 | 41.57930 | -72.68864 | 24985 ft | 506 kts | 58° |
| 2026-05-06 11:38 | 41.59707 | -72.64793 | 25214 ft | 507 kts | 58° |
| 2026-05-06 11:39 | 41.61484 | -72.60717 | 25436 ft | 509 kts | 58° |
| 2026-05-06 11:39 | 41.62671 | -72.57997 | 25597 ft | 510 kts | 57° |
| 2026-05-06 11:39 | 41.67620 | -72.48969 | 26108 ft | 510 kts | 46° |
| 2026-05-06 11:40 | 41.69922 | -72.45431 | 26339 ft | 511 kts | 46° |
| 2026-05-06 11:40 | 41.72274 | -72.41836 | 26533 ft | 512 kts | 46° |
| 2026-05-06 11:40 | 41.74626 | -72.38226 | 26748 ft | 514 kts | 46° |
| 2026-05-06 11:40 | 41.76969 | -72.34604 | 26946 ft | 516 kts | 46° |
| 2026-05-06 11:41 | 41.79317 | -72.30946 | 27154 ft | 518 kts | 47° |
| 2026-05-06 11:41 | 41.81670 | -72.27261 | 27344 ft | 519 kts | 47° |
| 2026-05-06 11:41 | 41.84015 | -72.23574 | 27540 ft | 520 kts | 47° |
| 2026-05-06 11:41 | 41.86344 | -72.19906 | 27726 ft | 522 kts | 47° |
| 2026-05-06 11:42 | 41.88703 | -72.16186 | 27894 ft | 523 kts | 47° |
| 2026-05-06 11:42 | 41.91064 | -72.12459 | 28075 ft | 524 kts | 47° |
| 2026-05-06 11:42 | 41.93430 | -72.08721 | 28247 ft | 525 kts | 47° |
| 2026-05-06 11:42 | 41.95803 | -72.04969 | 28405 ft | 526 kts | 47° |
| 2026-05-06 11:43 | 41.98147 | -72.01258 | 28561 ft | 527 kts | 47° |
| 2026-05-06 11:43 | 42.00532 | -71.97478 | 28706 ft | 528 kts | 47° |
| 2026-05-06 11:43 | 42.02907 | -71.93710 | 28833 ft | 530 kts | 47° |
| 2026-05-06 11:44 | 42.10099 | -71.82270 | 28932 ft | 537 kts | 47° |
| 2026-05-06 11:44 | 42.14740 | -71.74862 | 28923 ft | 537 kts | 47° |
| 2026-05-06 11:45 | 42.19554 | -71.67157 | 28926 ft | 537 kts | 47° |
| 2026-05-06 11:45 | 42.24334 | -71.59488 | 28922 ft | 536 kts | 47° |
| 2026-05-06 11:46 | 42.29122 | -71.51785 | 28924 ft | 535 kts | 47° |
| 2026-05-06 11:46 | 42.33886 | -71.44104 | 28903 ft | 534 kts | 47° |
| 2026-05-06 11:47 | 42.38653 | -71.36397 | 28898 ft | 534 kts | 47° |
| 2026-05-06 11:47 | 42.43428 | -71.28656 | 28897 ft | 534 kts | 47° |
| 2026-05-06 11:48 | 42.48165 | -71.20956 | 28904 ft | 535 kts | 47° |
| 2026-05-06 11:48 | 42.52935 | -71.13184 | 28909 ft | 535 kts | 47° |
| 2026-05-06 11:49 | 42.56898 | -71.06710 | 28924 ft | 536 kts | 47° |
| 2026-05-06 11:49 | 42.61643 | -70.98939 | 28920 ft | 536 kts | 48° |
| 2026-05-06 11:50 | 42.66405 | -70.91122 | 28918 ft | 537 kts | 48° |
| 2026-05-06 11:50 | 42.70858 | -70.82932 | 28919 ft | 539 kts | 55° |
| 2026-05-06 11:51 | 42.74906 | -70.74322 | 28911 ft | 540 kts | 56° |
| 2026-05-06 11:51 | 42.78933 | -70.65676 | 28906 ft | 540 kts | 56° |
| 2026-05-06 11:52 | 42.82969 | -70.57082 | 28892 ft | 540 kts | 55° |
| 2026-05-06 11:52 | 42.87023 | -70.48488 | 28897 ft | 540 kts | 55° |
| 2026-05-06 11:53 | 42.91092 | -70.39845 | 28906 ft | 541 kts | 55° |
| 2026-05-06 11:53 | 42.95152 | -70.31190 | 28907 ft | 541 kts | 55° |
| 2026-05-06 11:54 | 42.99183 | -70.22566 | 28910 ft | 541 kts | 55° |
| 2026-05-06 11:54 | 43.03236 | -70.13867 | 28913 ft | 541 kts | 55° |
| 2026-05-06 11:55 | 43.07253 | -70.05222 | 28914 ft | 541 kts | 55° |
| 2026-05-06 11:55 | 43.11287 | -69.96514 | 28919 ft | 541 kts | 55° |
| 2026-05-06 11:56 | 43.15326 | -69.87770 | 28924 ft | 541 kts | 55° |
| 2026-05-06 11:56 | 43.19347 | -69.79039 | 28922 ft | 541 kts | 56° |
| 2026-05-06 11:57 | 43.23338 | -69.70348 | 28928 ft | 541 kts | 56° |
| 2026-05-06 11:57 | 43.27345 | -69.61595 | 28929 ft | 541 kts | 56° |
| 2026-05-06 11:58 | 43.31353 | -69.52815 | 28931 ft | 541 kts | 56° |
| 2026-05-06 11:58 | 43.35330 | -69.44077 | 28938 ft | 541 kts | 56° |
| 2026-05-06 11:59 | 43.39315 | -69.35294 | 28936 ft | 541 kts | 56° |
| 2026-05-06 11:59 | 43.43298 | -69.26489 | 28939 ft | 541 kts | 56° |
| 2026-05-06 12:00 | 43.47250 | -69.17728 | 28934 ft | 541 kts | 56° |
| 2026-05-06 12:00 | 43.51222 | -69.08894 | 28937 ft | 541 kts | 56° |
| 2026-05-06 12:01 | 43.55157 | -69.00116 | 28939 ft | 541 kts | 56° |
| 2026-05-06 12:01 | 43.59112 | -68.91267 | 28934 ft | 541 kts | 56° |
| 2026-05-06 12:02 | 43.63035 | -68.82463 | 28946 ft | 540 kts | 56° |
| 2026-05-06 12:02 | 43.66975 | -68.73594 | 28949 ft | 540 kts | 56° |
| 2026-05-06 12:03 | 43.70873 | -68.64792 | 28946 ft | 539 kts | 56° |
| 2026-05-06 12:03 | 43.74791 | -68.55919 | 28949 ft | 539 kts | 56° |
| 2026-05-06 12:04 | 43.78693 | -68.47054 | 28946 ft | 538 kts | 56° |
| 2026-05-06 12:04 | 43.82561 | -68.38242 | 28954 ft | 538 kts | 56° |
| 2026-05-06 12:05 | 43.86444 | -68.29366 | 28950 ft | 537 kts | 56° |
| 2026-05-06 12:05 | 43.90292 | -68.20545 | 28958 ft | 537 kts | 56° |
| 2026-05-06 12:06 | 43.94156 | -68.11659 | 28954 ft | 537 kts | 56° |
| 2026-05-06 12:06 | 43.98017 | -68.02753 | 28961 ft | 537 kts | 57° |
| 2026-05-06 12:07 | 44.01871 | -67.93835 | 28962 ft | 537 kts | 57° |
| 2026-05-06 12:07 | 44.05690 | -67.84970 | 28967 ft | 538 kts | 57° |
| 2026-05-06 12:08 | 44.09529 | -67.76032 | 28967 ft | 538 kts | 57° |
| 2026-05-06 12:08 | 44.13371 | -67.67057 | 28976 ft | 538 kts | 57° |
| 2026-05-06 12:09 | 44.17177 | -67.58141 | 28973 ft | 538 kts | 57° |
| 2026-05-06 12:09 | 44.21013 | -67.49125 | 28974 ft | 538 kts | 57° |
| 2026-05-06 12:10 | 44.24829 | -67.40127 | 28980 ft | 538 kts | 57° |
| 2026-05-06 12:10 | 44.28598 | -67.31212 | 28978 ft | 536 kts | 57° |
| 2026-05-06 12:11 | 44.32382 | -67.22234 | 28979 ft | 535 kts | 57° |
| 2026-05-06 12:11 | 44.36145 | -67.13278 | 28978 ft | 533 kts | 57° |
| 2026-05-06 12:12 | 44.39874 | -67.04376 | 28983 ft | 532 kts | 57° |
| 2026-05-06 12:12 | 44.43472 | -66.95341 | 28985 ft | 531 kts | 60° |
| 2026-05-06 12:13 | 44.46787 | -66.86139 | 28996 ft | 531 kts | 61° |
| 2026-05-06 12:13 | 44.50067 | -66.76882 | 28990 ft | 531 kts | 62° |
| 2026-05-06 12:14 | 44.53375 | -66.67588 | 28994 ft | 531 kts | 61° |
| 2026-05-06 12:14 | 44.56689 | -66.58313 | 29000 ft | 532 kts | 62° |
| 2026-05-06 12:15 | 44.59988 | -66.49064 | 28994 ft | 533 kts | 62° |
| 2026-05-06 12:15 | 44.63302 | -66.39738 | 29003 ft | 533 kts | 62° |
| 2026-05-06 12:16 | 44.66607 | -66.30397 | 28995 ft | 534 kts | 62° |
| 2026-05-06 12:16 | 44.69896 | -66.21068 | 29009 ft | 534 kts | 62° |
| 2026-05-06 12:17 | 44.73187 | -66.11703 | 29008 ft | 534 kts | 62° |
| 2026-05-06 12:17 | 44.76472 | -66.02321 | 29013 ft | 534 kts | 62° |
| 2026-05-06 12:18 | 44.79729 | -65.92987 | 29020 ft | 534 kts | 62° |
| 2026-05-06 12:18 | 44.82998 | -65.83588 | 29016 ft | 534 kts | 63° |
| 2026-05-06 12:19 | 44.86263 | -65.74165 | 29023 ft | 534 kts | 63° |
| 2026-05-06 12:19 | 44.89506 | -65.64775 | 29017 ft | 534 kts | 63° |
| 2026-05-06 12:20 | 44.92754 | -65.55336 | 29018 ft | 534 kts | 63° |
| 2026-05-06 12:20 | 44.95981 | -65.45926 | 29022 ft | 535 kts | 63° |
| 2026-05-06 12:21 | 44.99222 | -65.36442 | 29017 ft | 535 kts | 63° |
| 2026-05-06 12:21 | 45.02432 | -65.27013 | 29019 ft | 535 kts | 63° |
| 2026-05-06 12:22 | 45.05660 | -65.17500 | 29015 ft | 535 kts | 63° |
| 2026-05-06 12:22 | 45.08877 | -65.07982 | 29020 ft | 536 kts | 64° |
| 2026-05-06 12:23 | 45.12074 | -64.98492 | 29022 ft | 536 kts | 64° |
| 2026-05-06 12:23 | 45.15276 | -64.88953 | 29016 ft | 536 kts | 64° |
| 2026-05-06 12:24 | 45.18455 | -64.79446 | 29022 ft | 536 kts | 64° |
| 2026-05-06 12:24 | 45.21646 | -64.69873 | 29022 ft | 536 kts | 64° |
| 2026-05-06 12:25 | 45.24831 | -64.60279 | 29017 ft | 537 kts | 64° |
| 2026-05-06 12:25 | 45.27989 | -64.50734 | 29017 ft | 537 kts | 64° |
| 2026-05-06 12:26 | 45.31161 | -64.41109 | 29016 ft | 537 kts | 64° |
| 2026-05-06 12:26 | 45.34326 | -64.31473 | 29018 ft | 537 kts | 64° |
| 2026-05-06 12:27 | 45.37464 | -64.21883 | 29016 ft | 537 kts | 64° |
| 2026-05-06 12:27 | 45.40614 | -64.12221 | 29022 ft | 537 kts | 64° |
| 2026-05-06 12:28 | 45.43755 | -64.02549 | 29015 ft | 537 kts | 65° |
| 2026-05-06 12:28 | 45.46887 | -63.92870 | 29018 ft | 537 kts | 65° |
| 2026-05-06 12:29 | 45.49993 | -63.83236 | 29022 ft | 537 kts | 65° |
| 2026-05-06 12:29 | 45.53099 | -63.73566 | 29023 ft | 536 kts | 65° |
| 2026-05-06 12:30 | 45.56204 | -63.63863 | 29031 ft | 536 kts | 65° |
| 2026-05-06 12:30 | 45.59298 | -63.54159 | 29021 ft | 536 kts | 65° |
| 2026-05-06 12:31 | 45.62359 | -63.44520 | 29030 ft | 536 kts | 65° |
| 2026-05-06 12:31 | 45.65433 | -63.34806 | 29024 ft | 535 kts | 65° |
| 2026-05-06 12:32 | 45.68490 | -63.25107 | 29016 ft | 535 kts | 65° |
| 2026-05-06 12:32 | 45.71542 | -63.15388 | 29030 ft | 535 kts | 65° |
| 2026-05-06 12:33 | 45.74587 | -63.05656 | 29015 ft | 534 kts | 65° |
| 2026-05-06 12:33 | 45.77601 | -62.95984 | 29021 ft | 534 kts | 65° |
| 2026-05-06 12:34 | 45.80621 | -62.86258 | 29003 ft | 533 kts | 65° |
| 2026-05-06 12:34 | 45.83612 | -62.76585 | 29006 ft | 533 kts | 65° |
| 2026-05-06 12:35 | 45.86619 | -62.66827 | 29007 ft | 532 kts | 65° |
| 2026-05-06 12:35 | 45.89099 | -62.58749 | 29005 ft | 531 kts | 65° |
| 2026-05-06 12:36 | 45.92078 | -62.49013 | 29003 ft | 530 kts | 65° |
| 2026-05-06 12:36 | 45.95019 | -62.39363 | 29018 ft | 530 kts | 65° |
| 2026-05-06 12:37 | 45.97969 | -62.29648 | 29017 ft | 529 kts | 66° |
| 2026-05-06 12:37 | 46.00909 | -62.19928 | 29030 ft | 528 kts | 66° |
| 2026-05-06 12:38 | 46.03820 | -62.10265 | 29039 ft | 528 kts | 66° |
| 2026-05-06 12:38 | 46.06735 | -62.00552 | 29036 ft | 528 kts | 66° |
| 2026-05-06 12:39 | 46.09629 | -61.90873 | 29037 ft | 527 kts | 66° |
| 2026-05-06 12:39 | 46.12519 | -61.81167 | 29031 ft | 527 kts | 66° |
| 2026-05-06 12:40 | 46.15406 | -61.71435 | 29032 ft | 527 kts | 66° |
| 2026-05-06 12:40 | 46.18278 | -61.61714 | 29035 ft | 526 kts | 66° |
| 2026-05-06 12:41 | 46.21127 | -61.52037 | 29034 ft | 526 kts | 66° |
| 2026-05-06 12:41 | 46.23985 | -61.42288 | 29035 ft | 525 kts | 66° |
| 2026-05-06 12:42 | 46.26810 | -61.32612 | 29028 ft | 525 kts | 66° |
| 2026-05-06 12:42 | 46.29642 | -61.22878 | 29028 ft | 524 kts | 66° |
| 2026-05-06 12:43 | 46.32465 | -61.13137 | 29019 ft | 525 kts | 66° |
| 2026-05-06 12:43 | 46.35270 | -61.03415 | 29032 ft | 525 kts | 66° |
| 2026-05-06 12:44 | 46.38076 | -60.93654 | 29041 ft | 525 kts | 66° |
| 2026-05-06 12:44 | 46.40865 | -60.83910 | 29034 ft | 525 kts | 66° |
| 2026-05-06 12:45 | 46.43664 | -60.74095 | 29034 ft | 525 kts | 67° |
| 2026-05-06 12:46 | 46.47827 | -60.59421 | 29035 ft | 525 kts | 67° |
| 2026-05-06 12:46 | 46.50612 | -60.49557 | 29033 ft | 525 kts | 67° |
| 2026-05-06 12:47 | 46.53364 | -60.39768 | 29027 ft | 524 kts | 67° |
| 2026-05-06 12:47 | 46.56093 | -60.30019 | 29029 ft | 523 kts | 67° |
| 2026-05-06 12:48 | 46.58824 | -60.20229 | 29035 ft | 521 kts | 67° |
| 2026-05-06 12:48 | 46.61537 | -60.10461 | 29041 ft | 520 kts | 67° |
| 2026-05-06 12:49 | 46.64231 | -60.00722 | 29052 ft | 519 kts | 67° |
| 2026-05-06 12:49 | 46.66919 | -59.90966 | 29054 ft | 518 kts | 68° |
| 2026-05-06 12:50 | 46.69580 | -59.81269 | 29063 ft | 518 kts | 68° |
| 2026-05-06 12:50 | 46.72249 | -59.71501 | 29065 ft | 519 kts | 68° |
| 2026-05-06 12:51 | 46.74923 | -59.61675 | 29055 ft | 519 kts | 68° |
| 2026-05-06 12:51 | 46.77563 | -59.51932 | 29077 ft | 520 kts | 68° |
| 2026-05-06 12:52 | 46.80225 | -59.42071 | 29075 ft | 520 kts | 68° |
| 2026-05-06 12:52 | 46.82857 | -59.32278 | 29077 ft | 521 kts | 68° |
| 2026-05-06 12:53 | 46.85498 | -59.22412 | 29085 ft | 521 kts | 68° |
| 2026-05-06 12:53 | 46.88134 | -59.12521 | 29093 ft | 521 kts | 68° |
| 2026-05-06 12:54 | 46.90758 | -59.02634 | 29092 ft | 521 kts | 69° |
| 2026-05-06 12:54 | 46.93368 | -58.92759 | 29095 ft | 522 kts | 69° |
| 2026-05-06 12:55 | 46.95967 | -58.82883 | 29106 ft | 522 kts | 69° |
| 2026-05-06 12:55 | 46.98574 | -58.72939 | 29115 ft | 522 kts | 69° |
| 2026-05-06 12:56 | 47.01176 | -58.62966 | 29114 ft | 522 kts | 69° |
| 2026-05-06 12:56 | 47.03745 | -58.53079 | 29112 ft | 522 kts | 69° |
| 2026-05-06 12:57 | 47.06324 | -58.43109 | 29117 ft | 522 kts | 69° |
| 2026-05-06 12:57 | 47.08891 | -58.33145 | 29129 ft | 521 kts | 69° |
| 2026-05-06 12:58 | 47.11434 | -58.23227 | 29125 ft | 521 kts | 69° |
| 2026-05-06 12:58 | 47.13977 | -58.13269 | 29135 ft | 520 kts | 70° |
| 2026-05-06 12:59 | 47.16510 | -58.03308 | 29140 ft | 519 kts | 70° |
| 2026-05-06 12:59 | 47.19016 | -57.93408 | 29146 ft | 519 kts | 70° |
| 2026-05-06 13:00 | 47.21524 | -57.83459 | 29141 ft | 518 kts | 70° |
| 2026-05-06 13:00 | 47.24024 | -57.73497 | 29147 ft | 518 kts | 70° |
| 2026-05-06 13:01 | 47.26497 | -57.63597 | 29153 ft | 518 kts | 70° |
| 2026-05-06 13:01 | 47.28983 | -57.53605 | 29160 ft | 518 kts | 70° |
| 2026-05-06 13:02 | 47.31449 | -57.43646 | 29157 ft | 518 kts | 70° |
| 2026-05-06 13:02 | 47.33916 | -57.33641 | 29174 ft | 518 kts | 70° |
| 2026-05-06 13:03 | 47.36355 | -57.23703 | 29165 ft | 518 kts | 70° |
| 2026-05-06 13:03 | 47.38805 | -57.13679 | 29177 ft | 518 kts | 70° |
| 2026-05-06 13:04 | 47.41250 | -57.03626 | 29172 ft | 519 kts | 71° |
| 2026-05-06 13:04 | 47.43669 | -56.93640 | 29168 ft | 519 kts | 71° |
| 2026-05-06 13:05 | 47.46093 | -56.83585 | 29165 ft | 519 kts | 71° |
| 2026-05-06 13:05 | 47.48494 | -56.73579 | 29156 ft | 519 kts | 71° |
| 2026-05-06 13:06 | 47.50904 | -56.63491 | 29152 ft | 519 kts | 71° |
| 2026-05-06 13:06 | 47.53305 | -56.53393 | 29142 ft | 519 kts | 71° |
| 2026-05-06 13:07 | 47.55686 | -56.43333 | 29139 ft | 520 kts | 71° |
| 2026-05-06 13:07 | 47.58066 | -56.33231 | 29123 ft | 520 kts | 71° |
| 2026-05-06 13:08 | 47.60431 | -56.23150 | 29118 ft | 520 kts | 72° |
| 2026-05-06 13:08 | 47.62798 | -56.13006 | 29111 ft | 520 kts | 72° |
| 2026-05-06 13:09 | 47.65154 | -56.02866 | 29111 ft | 520 kts | 72° |
| 2026-05-06 13:09 | 47.67489 | -55.92769 | 29109 ft | 520 kts | 72° |
| 2026-05-06 13:10 | 47.69837 | -55.82564 | 29115 ft | 521 kts | 72° |
| 2026-05-06 13:10 | 47.72160 | -55.72428 | 29116 ft | 521 kts | 72° |
| 2026-05-06 13:11 | 47.74488 | -55.62218 | 29121 ft | 521 kts | 72° |
| 2026-05-06 13:11 | 47.76802 | -55.52018 | 29125 ft | 522 kts | 72° |
| 2026-05-06 13:12 | 47.79111 | -55.41790 | 29131 ft | 522 kts | 72° |
| 2026-05-06 13:12 | 47.81415 | -55.31535 | 29141 ft | 522 kts | 73° |
| 2026-05-06 13:13 | 47.83702 | -55.21311 | 29156 ft | 523 kts | 73° |
| 2026-05-06 13:13 | 47.85991 | -55.11024 | 29161 ft | 523 kts | 73° |
| 2026-05-06 13:14 | 47.88262 | -55.00768 | 29166 ft | 523 kts | 73° |
| 2026-05-06 13:14 | 47.90541 | -54.90429 | 29179 ft | 524 kts | 73° |
| 2026-05-06 13:15 | 47.92809 | -54.80082 | 29187 ft | 524 kts | 73° |
| 2026-05-06 13:15 | 47.95054 | -54.69795 | 29183 ft | 524 kts | 73° |
| 2026-05-06 13:16 | 47.97308 | -54.59412 | 29182 ft | 524 kts | 73° |
| 2026-05-06 13:16 | 47.99538 | -54.49089 | 29174 ft | 525 kts | 73° |
| 2026-05-06 13:17 | 48.01774 | -54.38684 | 29179 ft | 525 kts | 73° |
| 2026-05-06 13:17 | 48.03990 | -54.28320 | 29176 ft | 526 kts | 73° |
| 2026-05-06 13:18 | 48.06208 | -54.17898 | 29173 ft | 526 kts | 73° |
| 2026-05-06 13:18 | 48.08422 | -54.07438 | 29171 ft | 527 kts | 73° |
| 2026-05-06 13:19 | 48.10626 | -53.96966 | 29165 ft | 527 kts | 73° |
| 2026-05-06 13:19 | 48.12808 | -53.86553 | 29167 ft | 526 kts | 73° |
| 2026-05-06 13:20 | 48.14992 | -53.76080 | 29157 ft | 526 kts | 73° |
| 2026-05-06 13:20 | 48.17165 | -53.65594 | 29158 ft | 526 kts | 73° |
| 2026-05-06 13:21 | 48.19318 | -53.55157 | 29154 ft | 526 kts | 73° |
| 2026-05-06 13:21 | 48.21473 | -53.44653 | 29154 ft | 527 kts | 73° |
| 2026-05-06 13:22 | 48.23622 | -53.34122 | 29153 ft | 527 kts | 73° |
| 2026-05-06 13:22 | 48.25747 | -53.23654 | 29146 ft | 528 kts | 73° |
| 2026-05-06 13:23 | 48.27880 | -53.13088 | 29146 ft | 528 kts | 73° |
| 2026-05-06 13:23 | 48.29647 | -53.04296 | 29143 ft | 529 kts | 73° |
| 2026-05-06 13:24 | 48.32119 | -52.91927 | 29140 ft | 530 kts | 73° |
| 2026-05-06 13:24 | 48.33873 | -52.83099 | 29136 ft | 530 kts | 73° |
| 2026-05-06 13:25 | 48.35977 | -52.72463 | 29133 ft | 531 kts | 73° |
| 2026-05-06 13:25 | 48.38075 | -52.61795 | 29135 ft | 531 kts | 73° |
| 2026-05-06 13:26 | 48.40151 | -52.51181 | 29138 ft | 531 kts | 73° |
| 2026-05-06 13:26 | 48.42217 | -52.40560 | 29131 ft | 531 kts | 73° |
| 2026-05-06 13:27 | 48.44286 | -52.29860 | 29138 ft | 530 kts | 73° |
| 2026-05-06 13:27 | 48.46339 | -52.19189 | 29136 ft | 530 kts | 73° |
| 2026-05-06 13:28 | 48.48372 | -52.08564 | 29134 ft | 529 kts | 73° |
| 2026-05-06 13:28 | 48.50480 | -51.97913 | 29136 ft | 530 kts | 69° |
| 2026-05-06 13:29 | 48.53165 | -51.87516 | 29230 ft | 539 kts | 67° |
| 2026-05-06 13:29 | 48.55977 | -51.76915 | 29352 ft | 546 kts | 67° |
| 2026-05-06 13:29 | 48.57380 | -51.71563 | 29496 ft | 548 kts | 67° |
| 2026-05-06 13:30 | 48.58771 | -51.66205 | 29717 ft | 547 kts | 67° |
| 2026-05-06 13:30 | 48.60147 | -51.60860 | 30030 ft | 545 kts | 67° |
| 2026-05-06 13:30 | 48.61513 | -51.55528 | 30308 ft | 543 kts | 67° |
| 2026-05-06 13:30 | 48.62873 | -51.50202 | 30520 ft | 542 kts | 67° |
| 2026-05-06 13:31 | 48.64212 | -51.44948 | 30699 ft | 542 kts | 67° |
| 2026-05-06 13:31 | 48.65567 | -51.39620 | 30887 ft | 541 kts | 67° |
| 2026-05-06 13:31 | 48.66917 | -51.34305 | 31042 ft | 540 kts | 67° |
| 2026-05-06 13:32 | 48.69613 | -51.23657 | 31129 ft | 540 kts | 67° |
| 2026-05-06 13:32 | 48.72279 | -51.13082 | 31133 ft | 540 kts | 67° |
| 2026-05-06 13:33 | 48.74952 | -51.02425 | 31141 ft | 539 kts | 67° |
| 2026-05-06 13:33 | 48.77594 | -50.91841 | 31140 ft | 538 kts | 67° |
| 2026-05-06 13:34 | 48.80241 | -50.81189 | 31143 ft | 538 kts | 67° |
| 2026-05-06 13:34 | 48.82855 | -50.70618 | 31141 ft | 538 kts | 67° |
| 2026-05-06 13:35 | 48.85485 | -50.59932 | 31143 ft | 538 kts | 67° |
| 2026-05-06 13:35 | 48.88082 | -50.49331 | 31145 ft | 538 kts | 67° |
| 2026-05-06 13:36 | 48.90693 | -50.38617 | 31144 ft | 538 kts | 67° |
| 2026-05-06 13:36 | 48.93274 | -50.27979 | 31147 ft | 538 kts | 67° |
| 2026-05-06 13:37 | 48.95857 | -50.17277 | 31144 ft | 538 kts | 67° |
| 2026-05-06 13:37 | 48.98432 | -50.06562 | 31149 ft | 538 kts | 67° |
| 2026-05-06 13:38 | 49.00739 | -49.95701 | 31148 ft | 540 kts | 75° |
| 2026-05-06 13:38 | 49.02337 | -49.84572 | 31158 ft | 540 kts | 76° |
| 2026-05-06 13:39 | 49.03878 | -49.73366 | 31152 ft | 540 kts | 76° |
| 2026-05-06 13:39 | 49.05446 | -49.62152 | 31152 ft | 539 kts | 75° |
| 2026-05-06 13:40 | 49.07019 | -49.51040 | 31160 ft | 539 kts | 75° |
| 2026-05-06 13:40 | 49.08601 | -49.39842 | 31158 ft | 539 kts | 75° |
| 2026-05-06 13:41 | 49.10165 | -49.28663 | 31160 ft | 538 kts | 75° |
| 2026-05-06 13:41 | 49.11709 | -49.17534 | 31160 ft | 538 kts | 75° |
| 2026-05-06 13:42 | 49.13249 | -49.06335 | 31169 ft | 538 kts | 75° |
| 2026-05-06 13:42 | 49.14767 | -48.95211 | 31159 ft | 537 kts | 75° |
| 2026-05-06 13:43 | 49.16286 | -48.84000 | 31154 ft | 537 kts | 76° |
| 2026-05-06 13:43 | 49.17784 | -48.72858 | 31177 ft | 537 kts | 76° |
| 2026-05-06 13:44 | 49.19277 | -48.61665 | 31170 ft | 537 kts | 76° |
| 2026-05-06 13:44 | 49.20763 | -48.50442 | 31170 ft | 537 kts | 76° |
| 2026-05-06 13:45 | 49.22226 | -48.39299 | 31173 ft | 537 kts | 76° |
| 2026-05-06 13:45 | 49.24420 | -48.22418 | 31169 ft | 538 kts | 76° |
| 2026-05-06 13:46 | 49.25861 | -48.11220 | 31174 ft | 538 kts | 76° |
| 2026-05-06 13:46 | 49.27301 | -47.99943 | 31179 ft | 539 kts | 76° |
| 2026-05-06 13:47 | 49.28724 | -47.88706 | 31178 ft | 539 kts | 76° |
| 2026-05-06 13:47 | 49.30144 | -47.77393 | 31183 ft | 540 kts | 76° |
| 2026-05-06 13:48 | 49.31544 | -47.66147 | 31182 ft | 540 kts | 76° |
| 2026-05-06 13:48 | 49.32943 | -47.54814 | 31183 ft | 540 kts | 76° |
| 2026-05-06 13:49 | 49.34333 | -47.43460 | 31185 ft | 540 kts | 76° |
| 2026-05-06 13:49 | 49.35703 | -47.32176 | 31187 ft | 541 kts | 76° |
| 2026-05-06 13:50 | 49.37070 | -47.20810 | 31190 ft | 541 kts | 75° |
| 2026-05-06 13:50 | 49.38417 | -47.09516 | 31192 ft | 541 kts | 75° |
| 2026-05-06 13:51 | 49.39760 | -46.98156 | 31189 ft | 540 kts | 75° |
| 2026-05-06 13:51 | 49.41095 | -46.86768 | 31196 ft | 540 kts | 75° |
| 2026-05-06 13:52 | 49.42407 | -46.75473 | 31196 ft | 540 kts | 75° |
| 2026-05-06 13:52 | 49.43716 | -46.64101 | 31196 ft | 539 kts | 75° |
| 2026-05-06 13:53 | 49.45010 | -46.52751 | 31200 ft | 539 kts | 75° |
| 2026-05-06 13:53 | 49.46289 | -46.41441 | 31192 ft | 540 kts | 75° |
| 2026-05-06 13:54 | 49.47566 | -46.30040 | 31203 ft | 540 kts | 75° |
| 2026-05-06 13:54 | 49.48832 | -46.18632 | 31192 ft | 541 kts | 75° |
| 2026-05-06 13:55 | 49.50090 | -46.07193 | 31194 ft | 542 kts | 75° |
| 2026-05-06 13:55 | 49.51329 | -45.95810 | 31201 ft | 542 kts | 75° |
| 2026-05-06 13:56 | 49.52570 | -45.84303 | 31200 ft | 543 kts | 75° |
| 2026-05-06 13:56 | 49.53788 | -45.72894 | 31198 ft | 543 kts | 75° |
| 2026-05-06 13:57 | 49.55005 | -45.61383 | 31200 ft | 543 kts | 75° |
| 2026-05-06 13:57 | 49.56206 | -45.49913 | 31198 ft | 542 kts | 75° |
| 2026-05-06 13:58 | 49.57390 | -45.38493 | 31199 ft | 542 kts | 75° |
| 2026-05-06 13:58 | 49.58570 | -45.26992 | 31195 ft | 542 kts | 75° |
| 2026-05-06 13:59 | 49.59738 | -45.15500 | 31194 ft | 541 kts | 75° |
| 2026-05-06 13:59 | 49.60886 | -45.04081 | 31202 ft | 541 kts | 75° |
| 2026-05-06 14:00 | 49.62026 | -44.92624 | 31199 ft | 541 kts | 75° |
| 2026-05-06 14:00 | 49.63161 | -44.81106 | 31203 ft | 541 kts | 75° |
| 2026-05-06 14:01 | 49.64275 | -44.69675 | 31202 ft | 541 kts | 75° |
| 2026-05-06 14:01 | 49.65383 | -44.58186 | 31198 ft | 541 kts | 75° |
| 2026-05-06 14:02 | 49.66481 | -44.46677 | 31209 ft | 541 kts | 75° |
| 2026-05-06 14:02 | 49.67562 | -44.35226 | 31210 ft | 541 kts | 75° |
| 2026-05-06 14:03 | 49.68640 | -44.23680 | 31209 ft | 541 kts | 75° |
| 2026-05-06 14:03 | 49.69698 | -44.12218 | 31211 ft | 542 kts | 75° |
| 2026-05-06 14:04 | 49.70750 | -44.00688 | 31203 ft | 542 kts | 75° |
| 2026-05-06 14:04 | 49.71787 | -43.89190 | 31205 ft | 542 kts | 75° |
| 2026-05-06 14:05 | 49.72814 | -43.77676 | 31202 ft | 542 kts | 75° |
| 2026-05-06 14:05 | 49.73834 | -43.66108 | 31201 ft | 542 kts | 75° |
| 2026-05-06 14:06 | 49.74843 | -43.54540 | 31204 ft | 542 kts | 75° |
| 2026-05-06 14:06 | 49.75834 | -43.43033 | 31199 ft | 543 kts | 75° |
| 2026-05-06 14:07 | 49.76821 | -43.31435 | 31190 ft | 543 kts | 75° |
| 2026-05-06 14:07 | 49.77796 | -43.19829 | 31210 ft | 543 kts | 75° |
| 2026-05-06 14:08 | 49.78754 | -43.08289 | 31208 ft | 543 kts | 76° |
| 2026-05-06 14:08 | 49.79708 | -42.96667 | 31201 ft | 543 kts | 76° |
| 2026-05-06 14:09 | 49.80645 | -42.85094 | 31204 ft | 543 kts | 76° |
| 2026-05-06 14:09 | 49.81570 | -42.73514 | 31207 ft | 544 kts | 76° |
| 2026-05-06 14:10 | 49.82489 | -42.61869 | 31211 ft | 544 kts | 76° |
| 2026-05-06 14:10 | 49.83398 | -42.50204 | 31205 ft | 544 kts | 76° |
| 2026-05-06 14:11 | 49.84290 | -42.38592 | 31207 ft | 544 kts | 76° |
| 2026-05-06 14:11 | 49.85171 | -42.26977 | 31204 ft | 545 kts | 76° |
| 2026-05-06 14:12 | 49.85898 | -42.17269 | 31207 ft | 545 kts | 76° |
| 2026-05-06 14:12 | 49.86903 | -42.03657 | 31201 ft | 545 kts | 76° |
| 2026-05-06 14:13 | 49.87610 | -41.93948 | 31191 ft | 545 kts | 76° |
| 2026-05-06 14:13 | 49.88451 | -41.82243 | 31200 ft | 544 kts | 76° |
| 2026-05-06 14:14 | 49.89279 | -41.70557 | 31202 ft | 544 kts | 76° |
| 2026-05-06 14:14 | 49.90090 | -41.58945 | 31206 ft | 544 kts | 76° |
| 2026-05-06 14:15 | 49.90895 | -41.47251 | 31205 ft | 545 kts | 76° |
| 2026-05-06 14:15 | 49.91689 | -41.35532 | 31203 ft | 545 kts | 76° |
| 2026-05-06 14:16 | 49.92467 | -41.23884 | 31192 ft | 545 kts | 76° |
| 2026-05-06 14:16 | 49.93237 | -41.12156 | 31193 ft | 545 kts | 76° |
| 2026-05-06 14:17 | 49.93991 | -41.00510 | 31191 ft | 545 kts | 76° |
| 2026-05-06 14:17 | 49.94739 | -40.88762 | 31187 ft | 545 kts | 76° |
| 2026-05-06 14:18 | 49.95474 | -40.77021 | 31191 ft | 545 kts | 76° |
| 2026-05-06 14:18 | 49.96194 | -40.65344 | 31194 ft | 545 kts | 76° |
| 2026-05-06 14:19 | 49.96902 | -40.53645 | 31186 ft | 546 kts | 76° |
| 2026-05-06 14:19 | 49.97603 | -40.41878 | 31195 ft | 546 kts | 76° |
| 2026-05-06 14:20 | 49.98292 | -40.30110 | 31192 ft | 546 kts | 76° |
| 2026-05-06 14:20 | 49.98964 | -40.18430 | 31189 ft | 546 kts | 76° |
| 2026-05-06 14:21 | 49.99631 | -40.06640 | 31182 ft | 546 kts | 76° |
| 2026-05-06 14:21 | 50.00261 | -39.94928 | 31183 ft | 547 kts | 77° |
| 2026-05-06 14:22 | 50.00761 | -39.83101 | 31183 ft | 548 kts | 78° |
| 2026-05-06 14:22 | 50.01212 | -39.71348 | 31182 ft | 548 kts | 77° |
| 2026-05-06 14:23 | 50.01670 | -39.59490 | 31182 ft | 548 kts | 77° |
| 2026-05-06 14:23 | 50.02132 | -39.47628 | 31179 ft | 549 kts | 77° |
| 2026-05-06 14:24 | 50.02586 | -39.35777 | 31178 ft | 549 kts | 77° |
| 2026-05-06 14:24 | 50.03024 | -39.23982 | 31176 ft | 550 kts | 78° |
| 2026-05-06 14:25 | 50.03452 | -39.12088 | 31178 ft | 551 kts | 78° |
| 2026-05-06 14:25 | 50.03866 | -39.00225 | 31180 ft | 551 kts | 78° |
| 2026-05-06 14:26 | 50.04272 | -38.88271 | 31174 ft | 552 kts | 78° |
| 2026-05-06 14:26 | 50.04665 | -38.76320 | 31176 ft | 553 kts | 78° |
| 2026-05-06 14:27 | 50.05044 | -38.64415 | 31172 ft | 554 kts | 78° |
| 2026-05-06 14:27 | 50.05413 | -38.52431 | 31176 ft | 554 kts | 79° |
| 2026-05-06 14:28 | 50.05769 | -38.40479 | 31174 ft | 555 kts | 79° |
| 2026-05-06 14:28 | 50.06115 | -38.28444 | 31171 ft | 555 kts | 79° |
| 2026-05-06 14:29 | 50.06449 | -38.16412 | 31171 ft | 555 kts | 79° |
| 2026-05-06 14:29 | 50.06768 | -38.04455 | 31168 ft | 555 kts | 80° |
| 2026-05-06 14:30 | 50.07076 | -37.92426 | 31163 ft | 554 kts | 80° |
| 2026-05-06 14:30 | 50.07371 | -37.80417 | 31168 ft | 554 kts | 81° |
| 2026-05-06 14:31 | 50.07653 | -37.68480 | 31161 ft | 553 kts | 81° |
| 2026-05-06 14:31 | 50.07924 | -37.56488 | 31155 ft | 552 kts | 81° |
| 2026-05-06 14:32 | 50.08179 | -37.44615 | 31154 ft | 551 kts | 82° |
| 2026-05-06 14:32 | 50.08424 | -37.32685 | 31155 ft | 550 kts | 82° |
| 2026-05-06 14:33 | 50.08657 | -37.20745 | 31148 ft | 550 kts | 82° |
| 2026-05-06 14:33 | 50.08875 | -37.08930 | 31144 ft | 549 kts | 83° |
| 2026-05-06 14:34 | 50.09083 | -36.97022 | 31149 ft | 548 kts | 83° |
| 2026-05-06 14:34 | 50.09278 | -36.85154 | 31143 ft | 547 kts | 83° |
| 2026-05-06 14:35 | 50.09460 | -36.73337 | 31147 ft | 547 kts | 84° |
| 2026-05-06 14:35 | 50.09631 | -36.61455 | 31141 ft | 546 kts | 84° |
| 2026-05-06 14:36 | 50.09788 | -36.49685 | 31139 ft | 546 kts | 84° |
| 2026-05-06 14:36 | 50.09935 | -36.37829 | 31135 ft | 546 kts | 85° |
| 2026-05-06 14:37 | 50.10068 | -36.26070 | 31138 ft | 545 kts | 85° |
| 2026-05-06 14:37 | 50.10190 | -36.14240 | 31129 ft | 545 kts | 85° |
| 2026-05-06 14:38 | 50.10300 | -36.02452 | 31127 ft | 544 kts | 86° |
| 2026-05-06 14:38 | 50.10397 | -35.90730 | 31123 ft | 544 kts | 86° |
| 2026-05-06 14:39 | 50.10483 | -35.78946 | 31124 ft | 543 kts | 86° |
| 2026-05-06 14:39 | 50.10557 | -35.67162 | 31122 ft | 543 kts | 86° |
| 2026-05-06 14:40 | 50.10619 | -35.55471 | 31125 ft | 542 kts | 87° |
| 2026-05-06 14:40 | 50.10669 | -35.43705 | 31109 ft | 542 kts | 87° |
| 2026-05-06 14:41 | 50.10707 | -35.32021 | 31125 ft | 541 kts | 87° |
| 2026-05-06 14:41 | 50.10733 | -35.20281 | 31122 ft | 541 kts | 88° |
| 2026-05-06 14:42 | 50.10748 | -35.08547 | 31115 ft | 541 kts | 88° |
| 2026-05-06 14:42 | 50.10751 | -34.96878 | 31109 ft | 540 kts | 88° |
| 2026-05-06 14:43 | 50.10742 | -34.85156 | 31114 ft | 540 kts | 88° |
| 2026-05-06 14:43 | 50.10721 | -34.73497 | 31109 ft | 539 kts | 89° |
| 2026-05-06 14:44 | 50.10688 | -34.61782 | 31103 ft | 539 kts | 89° |
| 2026-05-06 14:45 | 50.10618 | -34.44318 | 31104 ft | 539 kts | 89° |
| 2026-05-06 14:45 | 50.10556 | -34.32628 | 31107 ft | 538 kts | 89° |
| 2026-05-06 14:46 | 50.10483 | -34.20965 | 31106 ft | 538 kts | 90° |
| 2026-05-06 14:46 | 50.10399 | -34.09374 | 31107 ft | 537 kts | 90° |
| 2026-05-06 14:47 | 50.10302 | -33.97731 | 31106 ft | 537 kts | 90° |
| 2026-05-06 14:47 | 50.10194 | -33.86064 | 31102 ft | 537 kts | 90° |
| 2026-05-06 14:48 | 50.10075 | -33.74487 | 31101 ft | 536 kts | 90° |
| 2026-05-06 14:48 | 50.09944 | -33.62912 | 31101 ft | 536 kts | 91° |
| 2026-05-06 14:49 | 50.09801 | -33.51293 | 31097 ft | 536 kts | 91° |
| 2026-05-06 14:49 | 50.09647 | -33.39659 | 31098 ft | 536 kts | 91° |
| 2026-05-06 14:50 | 50.09482 | -33.28116 | 31099 ft | 536 kts | 91° |
| 2026-05-06 14:50 | 50.09305 | -33.16493 | 31095 ft | 536 kts | 91° |
| 2026-05-06 14:51 | 50.09116 | -33.04877 | 31093 ft | 535 kts | 91° |
| 2026-05-06 14:51 | 50.08917 | -32.93351 | 31091 ft | 535 kts | 92° |
| 2026-05-06 14:52 | 50.08705 | -32.81740 | 31087 ft | 535 kts | 92° |
| 2026-05-06 14:52 | 50.08482 | -32.70186 | 31086 ft | 535 kts | 92° |
| 2026-05-06 14:53 | 50.08247 | -32.58569 | 31082 ft | 535 kts | 92° |
| 2026-05-06 14:53 | 50.08003 | -32.47065 | 31079 ft | 535 kts | 92° |
| 2026-05-06 14:54 | 50.07745 | -32.35481 | 31074 ft | 534 kts | 92° |
| 2026-05-06 14:54 | 50.07476 | -32.23901 | 31074 ft | 534 kts | 93° |
| 2026-05-06 14:55 | 50.07196 | -32.12347 | 31073 ft | 533 kts | 93° |
| 2026-05-06 14:55 | 50.06906 | -32.00859 | 31063 ft | 533 kts | 93° |
| 2026-05-06 14:56 | 50.06604 | -31.89326 | 31071 ft | 533 kts | 93° |
| 2026-05-06 14:56 | 50.06291 | -31.77845 | 31053 ft | 532 kts | 93° |
| 2026-05-06 14:57 | 50.05967 | -31.66332 | 31060 ft | 532 kts | 93° |
| 2026-05-06 14:57 | 50.05631 | -31.54843 | 31054 ft | 531 kts | 94° |
| 2026-05-06 14:58 | 50.05284 | -31.43339 | 31051 ft | 530 kts | 94° |
| 2026-05-06 14:58 | 50.04928 | -31.31930 | 31054 ft | 530 kts | 94° |
| 2026-05-06 14:59 | 50.04560 | -31.20474 | 31041 ft | 529 kts | 94° |
| 2026-05-06 14:59 | 50.04180 | -31.09028 | 31047 ft | 529 kts | 94° |
| 2026-05-06 15:00 | 50.03792 | -30.97644 | 31045 ft | 529 kts | 94° |
| 2026-05-06 15:00 | 50.03459 | -30.88139 | 31032 ft | 529 kts | 94° |
| 2026-05-06 15:01 | 50.02977 | -30.74767 | 31026 ft | 529 kts | 94° |
| 2026-05-06 15:01 | 50.02555 | -30.63400 | 31037 ft | 529 kts | 94° |
| 2026-05-06 15:02 | 50.02194 | -30.53890 | 31027 ft | 530 kts | 94° |
| 2026-05-06 15:02 | 50.01748 | -30.42427 | 31021 ft | 530 kts | 94° |
| 2026-05-06 15:03 | 50.01291 | -30.30972 | 31023 ft | 531 kts | 94° |
| 2026-05-06 15:03 | 50.00824 | -30.19547 | 31013 ft | 532 kts | 94° |
| 2026-05-06 15:04 | 50.00345 | -30.08068 | 31013 ft | 532 kts | 94° |
| 2026-05-06 15:04 | 49.99843 | -29.96579 | 31003 ft | 532 kts | 95° |
| 2026-05-06 15:05 | 49.99210 | -29.85083 | 31005 ft | 532 kts | 96° |
| 2026-05-06 15:05 | 49.98527 | -29.73700 | 31002 ft | 532 kts | 96° |
| 2026-05-06 15:06 | 49.97843 | -29.62252 | 30994 ft | 531 kts | 96° |
| 2026-05-06 15:06 | 49.97166 | -29.50866 | 30998 ft | 531 kts | 96° |
| 2026-05-06 15:07 | 49.96480 | -29.39439 | 30989 ft | 530 kts | 96° |
| 2026-05-06 15:07 | 49.95783 | -29.28013 | 30979 ft | 529 kts | 96° |
| 2026-05-06 15:08 | 49.95080 | -29.16701 | 30980 ft | 528 kts | 97° |
| 2026-05-06 15:08 | 49.94363 | -29.05342 | 30975 ft | 527 kts | 97° |
| 2026-05-06 15:09 | 49.93633 | -28.93978 | 30967 ft | 527 kts | 97° |
| 2026-05-06 15:09 | 49.92901 | -28.82734 | 30964 ft | 525 kts | 97° |
| 2026-05-06 15:10 | 49.92155 | -28.71452 | 30961 ft | 524 kts | 97° |
| 2026-05-06 15:10 | 49.91402 | -28.60234 | 30957 ft | 523 kts | 98° |
| 2026-05-06 15:11 | 49.90637 | -28.49015 | 30950 ft | 522 kts | 98° |
| 2026-05-06 15:11 | 49.89864 | -28.37818 | 30946 ft | 521 kts | 98° |
| 2026-05-06 15:12 | 49.89081 | -28.26653 | 30943 ft | 520 kts | 99° |
| 2026-05-06 15:12 | 49.88294 | -28.15573 | 30948 ft | 519 kts | 99° |
| 2026-05-06 15:13 | 49.87492 | -28.04447 | 30943 ft | 518 kts | 99° |
| 2026-05-06 15:13 | 49.86680 | -27.93328 | 30935 ft | 518 kts | 99° |
| 2026-05-06 15:14 | 49.85863 | -27.82289 | 30940 ft | 518 kts | 99° |
| 2026-05-06 15:14 | 49.85030 | -27.71178 | 30937 ft | 518 kts | 100° |
| 2026-05-06 15:15 | 49.84188 | -27.60099 | 30930 ft | 518 kts | 100° |
| 2026-05-06 15:15 | 49.83340 | -27.49079 | 30943 ft | 518 kts | 100° |
| 2026-05-06 15:16 | 49.82474 | -27.37972 | 30947 ft | 519 kts | 100° |
| 2026-05-06 15:16 | 49.81598 | -27.26870 | 30944 ft | 519 kts | 101° |
| 2026-05-06 15:17 | 49.80709 | -27.15738 | 30952 ft | 520 kts | 101° |
| 2026-05-06 15:17 | 49.79813 | -27.04663 | 30938 ft | 521 kts | 101° |
| 2026-05-06 15:18 | 49.78901 | -26.93514 | 30955 ft | 520 kts | 101° |
| 2026-05-06 15:18 | 49.77984 | -26.82455 | 30962 ft | 521 kts | 101° |
| 2026-05-06 15:19 | 49.77049 | -26.71304 | 30965 ft | 523 kts | 101° |
| 2026-05-06 15:19 | 49.76098 | -26.60102 | 30978 ft | 525 kts | 101° |
| 2026-05-06 15:20 | 49.75138 | -26.48918 | 30978 ft | 528 kts | 101° |
| 2026-05-06 15:20 | 49.74155 | -26.37600 | 30981 ft | 531 kts | 101° |
| 2026-05-06 15:21 | 49.73164 | -26.26316 | 30986 ft | 534 kts | 101° |
| 2026-05-06 15:21 | 49.72150 | -26.14905 | 30987 ft | 536 kts | 101° |
| 2026-05-06 15:22 | 49.71120 | -26.03446 | 30992 ft | 538 kts | 101° |
| 2026-05-06 15:22 | 49.70082 | -25.92021 | 30996 ft | 539 kts | 102° |
| 2026-05-06 15:23 | 49.69026 | -25.80534 | 30980 ft | 540 kts | 102° |
| 2026-05-06 15:23 | 49.67966 | -25.69124 | 30993 ft | 539 kts | 102° |
| 2026-05-06 15:24 | 49.66886 | -25.57625 | 30993 ft | 539 kts | 102° |
| 2026-05-06 15:24 | 49.65803 | -25.46227 | 30997 ft | 539 kts | 102° |
| 2026-05-06 15:25 | 49.64700 | -25.34740 | 30998 ft | 540 kts | 102° |
| 2026-05-06 15:25 | 49.63592 | -25.23330 | 31001 ft | 540 kts | 102° |
| 2026-05-06 15:26 | 49.62467 | -25.11864 | 30999 ft | 541 kts | 102° |
| 2026-05-06 15:26 | 49.61329 | -25.00378 | 30995 ft | 541 kts | 102° |
| 2026-05-06 15:27 | 49.60178 | -24.88895 | 30999 ft | 542 kts | 102° |
| 2026-05-06 15:27 | 49.59021 | -24.77455 | 31001 ft | 542 kts | 102° |
| 2026-05-06 15:28 | 49.57844 | -24.65943 | 31005 ft | 543 kts | 102° |
| 2026-05-06 15:28 | 49.56655 | -24.54428 | 30997 ft | 543 kts | 102° |
| 2026-05-06 15:29 | 49.55461 | -24.42985 | 30993 ft | 543 kts | 102° |
| 2026-05-06 15:29 | 49.54252 | -24.31507 | 31000 ft | 543 kts | 102° |
| 2026-05-06 15:30 | 49.53026 | -24.19989 | 31014 ft | 544 kts | 102° |
| 2026-05-06 15:30 | 49.51789 | -24.08477 | 30997 ft | 544 kts | 102° |
| 2026-05-06 15:31 | 49.50548 | -23.97035 | 31002 ft | 544 kts | 102° |
| 2026-05-06 15:31 | 49.49288 | -23.85530 | 31020 ft | 544 kts | 102° |
| 2026-05-06 15:32 | 49.47386 | -23.68369 | 31027 ft | 544 kts | 102° |
| 2026-05-06 15:32 | 49.46096 | -23.56873 | 31023 ft | 545 kts | 102° |
| 2026-05-06 15:33 | 49.44795 | -23.45379 | 31024 ft | 545 kts | 102° |
| 2026-05-06 15:33 | 49.43491 | -23.33958 | 31031 ft | 545 kts | 102° |
| 2026-05-06 15:34 | 49.42166 | -23.22474 | 31030 ft | 546 kts | 102° |
| 2026-05-06 15:34 | 49.40830 | -23.10989 | 31046 ft | 546 kts | 102° |
| 2026-05-06 15:35 | 49.39487 | -22.99552 | 31034 ft | 547 kts | 102° |
| 2026-05-06 15:35 | 49.38123 | -22.88036 | 31046 ft | 548 kts | 102° |
| 2026-05-06 15:36 | 49.36745 | -22.76504 | 31045 ft | 549 kts | 102° |
| 2026-05-06 15:36 | 49.35361 | -22.65022 | 31057 ft | 550 kts | 102° |
| 2026-05-06 15:37 | 49.33955 | -22.53465 | 31054 ft | 550 kts | 102° |
| 2026-05-06 15:37 | 49.32537 | -22.41908 | 31053 ft | 551 kts | 102° |
| 2026-05-06 15:38 | 49.31109 | -22.30366 | 31055 ft | 551 kts | 102° |
| 2026-05-06 15:38 | 49.29677 | -22.18903 | 31055 ft | 550 kts | 102° |
| 2026-05-06 15:39 | 49.28224 | -22.07356 | 31059 ft | 550 kts | 102° |
| 2026-05-06 15:39 | 49.26759 | -21.95823 | 31059 ft | 550 kts | 101° |
| 2026-05-06 15:40 | 49.25298 | -21.84408 | 31062 ft | 549 kts | 101° |
| 2026-05-06 15:40 | 49.23816 | -21.72930 | 31067 ft | 549 kts | 101° |
| 2026-05-06 15:41 | 49.22324 | -21.61467 | 31069 ft | 548 kts | 101° |
| 2026-05-06 15:41 | 49.20831 | -21.50089 | 31071 ft | 548 kts | 101° |
| 2026-05-06 15:42 | 49.19320 | -21.38671 | 31073 ft | 547 kts | 101° |
| 2026-05-06 15:42 | 49.17800 | -21.27278 | 31070 ft | 545 kts | 101° |
| 2026-05-06 15:43 | 49.16283 | -21.15989 | 31072 ft | 543 kts | 101° |
| 2026-05-06 15:43 | 49.14751 | -21.04685 | 31073 ft | 542 kts | 101° |
| 2026-05-06 15:44 | 49.13224 | -20.93497 | 31074 ft | 540 kts | 101° |
| 2026-05-06 15:44 | 49.11681 | -20.82286 | 31076 ft | 538 kts | 101° |
| 2026-05-06 15:45 | 49.10131 | -20.71102 | 31080 ft | 536 kts | 101° |
| 2026-05-06 15:45 | 49.08587 | -20.60052 | 31077 ft | 534 kts | 102° |
| 2026-05-06 15:46 | 49.07029 | -20.48982 | 31078 ft | 532 kts | 102° |
| 2026-05-06 15:46 | 49.05474 | -20.38010 | 31077 ft | 530 kts | 102° |
| 2026-05-06 15:47 | 49.03905 | -20.27019 | 31082 ft | 529 kts | 102° |
| 2026-05-06 15:47 | 49.02331 | -20.16077 | 31082 ft | 528 kts | 102° |
| 2026-05-06 15:48 | 49.00750 | -20.05150 | 31079 ft | 527 kts | 102° |
| 2026-05-06 15:48 | 48.99114 | -19.94323 | 31082 ft | 526 kts | 104° |
| 2026-05-06 15:49 | 48.97206 | -19.83560 | 31083 ft | 526 kts | 105° |
| 2026-05-06 15:49 | 48.95567 | -19.74636 | 31079 ft | 525 kts | 105° |
| 2026-05-06 15:50 | 48.93307 | -19.62162 | 31083 ft | 525 kts | 105° |
| 2026-05-06 15:50 | 48.91709 | -19.53240 | 31082 ft | 525 kts | 105° |
| 2026-05-06 15:51 | 48.89783 | -19.42505 | 31084 ft | 525 kts | 105° |
| 2026-05-06 15:51 | 48.87859 | -19.31854 | 31084 ft | 525 kts | 105° |
| 2026-05-06 15:52 | 48.85907 | -19.21126 | 31086 ft | 525 kts | 105° |
| 2026-05-06 15:52 | 48.83960 | -19.10492 | 31088 ft | 525 kts | 105° |
| 2026-05-06 15:53 | 48.81986 | -18.99777 | 31084 ft | 526 kts | 105° |
| 2026-05-06 15:53 | 48.80017 | -18.89141 | 31078 ft | 526 kts | 104° |
| 2026-05-06 15:54 | 48.78025 | -18.78448 | 31083 ft | 526 kts | 104° |
| 2026-05-06 15:54 | 48.76023 | -18.67766 | 31084 ft | 526 kts | 104° |
| 2026-05-06 15:55 | 48.74026 | -18.57165 | 31083 ft | 526 kts | 104° |
| 2026-05-06 15:55 | 48.72007 | -18.46510 | 31082 ft | 525 kts | 104° |
| 2026-05-06 15:56 | 48.69977 | -18.35858 | 31081 ft | 525 kts | 104° |
| 2026-05-06 15:56 | 48.67948 | -18.25273 | 31085 ft | 525 kts | 104° |
| 2026-05-06 15:57 | 48.65901 | -18.14649 | 31086 ft | 525 kts | 104° |
| 2026-05-06 15:57 | 48.63859 | -18.04108 | 31086 ft | 525 kts | 104° |
| 2026-05-06 15:58 | 48.61792 | -17.93504 | 31090 ft | 525 kts | 104° |
| 2026-05-06 15:58 | 48.59713 | -17.82893 | 31086 ft | 525 kts | 104° |
| 2026-05-06 15:59 | 48.57629 | -17.72311 | 31087 ft | 525 kts | 104° |
| 2026-05-06 15:59 | 48.55539 | -17.61765 | 31089 ft | 526 kts | 104° |
| 2026-05-06 16:00 | 48.53429 | -17.51171 | 31090 ft | 526 kts | 104° |
| 2026-05-06 16:00 | 48.51326 | -17.40666 | 31089 ft | 526 kts | 104° |
| 2026-05-06 16:01 | 48.49195 | -17.30082 | 31089 ft | 526 kts | 104° |
| 2026-05-06 16:01 | 48.47068 | -17.19574 | 31088 ft | 527 kts | 104° |
| 2026-05-06 16:02 | 48.44920 | -17.09014 | 31096 ft | 527 kts | 104° |
| 2026-05-06 16:02 | 48.42757 | -16.98448 | 31090 ft | 527 kts | 104° |
| 2026-05-06 16:03 | 48.40583 | -16.87880 | 31089 ft | 528 kts | 104° |